Главная страница
METAR-TAF:

METAR-TAF

Аэропорты :

Сальвадор, Сальвадор

широта: 13-26N, долгота: 089-03W, высота над уровнем моря: 25 м

Текущие метеонаблюдения

Эта сводка был подготовлена 19 минут назад, в 23:50 UTC
Ветер 2 Узел переменных направлений
Температура 25°C
Влажность 79%
Давление 1011 hPa
Видимость 10 км и более
Нет облачности ниже 1500 м, и нет кучево-дождевой облачности

METAR: MSLP 182350Z VRB02KT CAVOK 25/21 Q1010 A2984 NOSIG RMK FU S

Время: 18:09 (00:09 UTC)

Прогноз

Эта сводка был подготовлена 2 часа и 44 минут назад, в 21:25 UTC
Прогноз действительный с 19-го 00 UTC до 19-го 24 UTC
Ветер 7 Узел от северо-северо-восточный
Видимость 10 км и более
Нет облачности ниже 1500 м, и нет кучево-дождевой облачности
С 19-го 0500 UTC
Видимость 10 км и более
Отдельные облака на высоте 7500 фута
С 19-го 1100 UTC
Видимость 10 км и более
Нет облачности ниже 1500 м, и нет кучево-дождевой облачности

TAF: MSLP 182125Z 1900/1924 03007KT CAVOK TX33/1918Z TN22/1912Z FM190500 9999 SCT075 FM191100 CAVOK

Метеонаблюдения и прогнозы для более 4000 аэропортов (сводки METAR и TAF).

Имеющиеся станции представлены на карте желтыми и красными точками.

Чтобы увидеть название станции, наведите на нее мышь.

Затем щелкните, чтобы увидеть метеонаблюдения и метеопрогнозы.

Управление картой: чтобы увеличить масштаб, щелкните зеленые кнопки с черным крестиком; чтобы уменьшить масштаб, щелкните зеленую кнопку с тире; для просмотра соседних карт щелкайте зеленые стрелки.


METAR-TAF: